Spokane International Airport
KGEG : now visible

Airfield :











YOU CAN JOIN US ON...

 
LOGIN :

Register | Disclaimer

   EN    FR    IT 

 









Legend :    VFR   Marginal VFR   IFR   Intensive IFR   Very Intensive IFR
Visi :
Ceiling :
>= 8 km
>= 3000ft
5 to 8 km
1000 to 3000 ft
1500m to 5 km
500 to 1000 ft
800 to 1500m
200 to 500 ft
< 800m
< 200 ft
Symbols :   Thunderstorms  Fog  Heavy snow  Heavy precipitations  Wind > 20 kt






- Airport Elevation : 2376 ft
- IATA code : GEG


KGEG - Spokane International

CURRENT METAR :
  • 090953Z 18005KT 1/2SM R21/P6000FT BR OVC001 M03/M04 A3019 RMK AO2 SFC VIS 1 1/2 SLP240 VIS SE 3/4 W 2 I1000 T10281039

EXPIRED METARs :
  • 090853Z 16007KT 1/2SM R21/P6000FT BR BKN001 OVC230 M02/M04 A3016 RMK AO2 SFC VIS 1 SLP230 VIS E-SE 1/2 W 2 I3001 T10221039 51010
  • 090753Z 18006KT 1/2SM R21/P6000FT BR BKN001 OVC230 M02/M03 A3016 RMK AO2 SFC VIS 1 1/2 SLP230 VIS E-SE 1/2 SW-W 3 I1001 T10221033 400611028

TAF KGEG
Valid from the 09 at 07:00 until the 10 at 06:00 UTC


090710Z 0907/1006 17005KT 1SM BR SCT001
TEMPO 0907/0908 1/2SM FZFG BKN001
FM091100 12004KT 1SM BCFG SCT001 BKN004
FM091500 VRB03KT 3SM BR BKN005
FM091700 VRB03KT 5SM BR SCT002 BKN005
FM092300 23003KT 6SM BR SCT007 BKN019
FM100300 19003KT P6SM OVC050



MET'MAP, your aeronautical weather chart ! - Copyright ORBIFLY December 2007 - Disclaimer

ORBIFLY MET'MAP TEAM :

Programming & Development : Alexandra Zaïnal
Concept & original design : Baudouin d'Aumeries
Assistance for programming : Marc-Olivier Méhu
Technical & hardware support : Manuel Goepfert

Contact : metmap@orbifly.com




SOURCES & CREDITS :

   NOAA       Earth
Advisory